Time;durP1;ratioP1;P1;durP2;ratioP2;P2;SDS_P1;SDS_P2;PMS_P1;PMS_P2;Temp;Humidity;BMP_temperature;BMP_pressure;BME280_temperature;BME280_humidity;BME280_pressure;Samples;Min_cycle;Max_cycle;Signal;HPM_P1;HPM_P2
2022/08/11 00:01:58;;;;;;;0.00;0.00;;;19.60;87.70;;;;;;4942040;29;20047;-86
2022/08/11 00:04:33;;;;;;;0.00;0.00;;;19.50;88.10;;;;;;4945973;29;20075;-86
2022/08/11 00:07:02;;;;;;;0.00;0.00;;;19.50;88.80;;;;;;4962247;28;20055;-84
2022/08/11 00:09:34;;;;;;;0.00;0.00;;;20.60;88.70;;;;;;4946539;29;20111;-84
2022/08/11 00:12:12;;;;;;;0.00;0.00;;;19.40;89.90;;;;;;4940734;29;20047;-86
2022/08/11 00:14:40;;;;;;;0.00;0.00;;;19.40;90.30;;;;;;4946859;29;20052;-84
2022/08/11 00:17:10;;;;;;;0.00;0.00;;;19.40;90.50;;;;;;4947841;29;20047;-85
2022/08/11 00:19:41;;;;;;;0.00;0.00;;;19.30;90.50;;;;;;4944338;29;20699;-86
2022/08/11 00:22:29;;;;;;;0.00;0.00;;;19.30;90.00;;;;;;4945596;29;20119;-85
2022/08/11 00:24:57;;;;;;;0.00;0.00;;;19.20;90.10;;;;;;4960661;29;20052;-85
2022/08/11 00:27:33;;;;;;;0.00;0.00;;;19.20;90.30;;;;;;4938623;29;20042;-86
2022/08/11 00:30:00;;;;;;;0.00;0.00;;;19.20;90.40;;;;;;4947727;29;20051;-85
2022/08/11 00:32:29;;;;;;;0.00;0.00;;;19.20;90.30;;;;;;4960779;28;20046;-85
2022/08/11 00:35:00;;;;;;;0.00;0.00;;;19.10;90.50;;;;;;4945847;29;20044;-84
2022/08/11 00:37:50;;;;;;;0.00;0.00;;;19.20;91.00;;;;;;4963106;29;20051;-85
2022/08/11 00:40:24;;;;;;;0.00;0.00;;;19.10;91.60;;;;;;4945607;29;20047;-85
2022/08/11 00:43:05;;;;;;;0.00;0.00;;;19.00;92.10;;;;;;4942524;29;20055;-85
2022/08/11 00:45:41;;;;;;;0.00;0.00;;;18.90;92.60;;;;;;4947570;29;20075;-85
2022/08/11 00:48:27;;;;;;;0.00;0.00;;;18.70;92.90;;;;;;4947348;29;20054;-85
2022/08/11 00:51:08;;;;;;;0.00;0.00;;;18.70;92.60;;;;;;4946797;29;20065;-85
2022/08/11 00:53:46;;;;;;;0.10;0.10;;;18.70;92.30;;;;;;4949924;29;20047;-85
2022/08/11 00:56:27;;;;;;;0.00;0.00;;;18.70;92.40;;;;;;4949366;29;20056;-85
2022/08/11 00:59:22;;;;;;;0.00;0.00;;;18.60;92.70;;;;;;4944956;29;20087;-86
2022/08/11 01:02:13;;;;;;;0.00;0.00;;;18.50;93.10;;;;;;4945922;29;20055;-85
2022/08/11 01:05:22;;;;;;;0.00;0.00;;;18.40;93.30;;;;;;4948222;29;20055;-84
2022/08/11 01:08:31;;;;;;;0.00;0.00;;;18.20;93.60;;;;;;4941410;29;20048;-84
2022/08/11 01:11:20;;;;;;;0.00;0.00;;;18.10;94.00;;;;;;4944057;29;20295;-85
2022/08/11 01:14:38;;;;;;;0.00;0.00;;;17.80;94.50;;;;;;4946281;29;20571;-85
2022/08/11 01:17:41;;;;;;;0.00;0.00;;;17.70;95.00;;;;;;4947378;29;20059;-86
2022/08/11 01:20:20;;;;;;;0.00;0.00;;;17.50;95.10;;;;;;4955514;28;20055;-85
2022/08/11 01:23:48;;;;;;;0.00;0.00;;;17.50;94.80;;;;;;4962249;28;20131;-86
2022/08/11 01:26:59;;;;;;;0.00;0.00;;;17.40;95.00;;;;;;4950387;29;20051;-84
2022/08/11 01:30:04;;;;;;;0.00;0.00;;;17.20;95.40;;;;;;4928601;29;20059;-85
2022/08/11 01:33:02;;;;;;;0.00;0.00;;;17.00;95.90;;;;;;4942285;29;20079;-84
2022/08/11 01:36:00;;;;;;;0.00;0.00;;;17.00;96.00;;;;;;4952344;29;20124;-85
2022/08/11 01:38:58;;;;;;;0.00;0.00;;;17.00;96.00;;;;;;4947250;29;20058;-85
2022/08/11 01:45:07;;;;;;;0.00;0.00;;;17.00;96.00;;;;;;4949333;29;20043;-85
2022/08/11 01:47:50;;;;;;;0.00;0.00;;;16.90;96.20;;;;;;4950974;29;20039;-84
2022/08/11 01:50:46;;;;;;;0.00;0.00;;;16.80;96.40;;;;;;4951730;29;20052;-84
2022/08/11 01:53:25;;;;;;;0.00;0.00;;;16.80;96.40;;;;;;4950435;29;20055;-85
2022/08/11 01:55:56;;;;;;;;;;;16.70;96.60;;;;;;4952135;29;20060;-86
2022/08/11 01:58:32;;;;;;;0.00;0.00;;;16.60;97.20;;;;;;4937606;29;19931;-85
2022/08/11 02:01:30;;;;;;;0.00;0.00;;;16.60;97.30;;;;;;4963236;28;20058;-85
2022/08/11 02:04:08;;;;;;;0.00;0.00;;;16.30;97.90;;;;;;4953108;29;20043;-85
2022/08/11 02:06:55;;;;;;;0.00;0.00;;;16.30;98.10;;;;;;4967080;29;20115;-84
2022/08/11 02:09:41;;;;;;;0.00;0.00;;;16.30;98.20;;;;;;4966709;29;20044;-85
2022/08/11 02:12:32;;;;;;;0.00;0.00;;;16.20;98.20;;;;;;4947742;29;20036;-85
2022/08/11 02:15:08;;;;;;;0.00;0.00;;;16.30;98.20;;;;;;4953755;29;20052;-85
2022/08/11 02:17:47;;;;;;;0.00;0.00;;;16.40;97.90;;;;;;4952646;29;20044;-85
2022/08/11 02:23:40;;;;;;;0.00;0.00;;;16.20;99.00;;;;;;4952220;29;20086;-86
2022/08/11 02:26:35;;;;;;;0.00;0.00;;;15.90;99.60;;;;;;4964960;28;20058;-85
2022/08/11 02:29:11;;;;;;;0.00;0.00;;;16.30;99.80;;;;;;4967595;28;20050;-85
2022/08/11 02:35:02;;;;;;;0.00;0.00;;;16.10;99.80;;;;;;4953407;29;20100;-86
2022/08/11 02:37:43;;;;;;;0.00;0.00;;;16.00;99.80;;;;;;4954862;29;20040;-85
2022/08/11 02:40:21;;;;;;;0.00;0.00;;;16.00;99.70;;;;;;4955908;29;20039;-84
2022/08/11 02:43:09;;;;;;;0.00;0.00;;;17.90;99.90;;;;;;4954603;29;20051;-84
2022/08/11 02:45:47;;;;;;;0.00;0.00;;;15.90;99.90;;;;;;4952923;29;20052;-84
2022/08/11 02:51:19;;;;;;;0.00;0.00;;;15.70;99.90;;;;;;4954336;29;20032;-85
2022/08/11 02:53:57;;;;;;;0.00;0.00;;;15.60;99.90;;;;;;4955799;29;20048;-85
2022/08/11 02:56:37;;;;;;;0.00;0.00;;;15.60;99.90;;;;;;4971696;28;20047;-85
2022/08/11 03:02:12;;;;;;;0.00;0.00;;;15.70;99.90;;;;;;4952073;29;20038;-86
2022/08/11 03:04:50;;;;;;;0.00;0.00;;;15.70;99.90;;;;;;4955696;29;20035;-85
2022/08/11 03:07:24;;;;;;;0.00;0.00;;;15.70;99.90;;;;;;4956987;29;20051;-85
2022/08/11 03:10:04;;;;;;;0.00;0.00;;;15.60;99.90;;;;;;4939100;29;20052;-85
2022/08/11 03:18:33;;;;;;;0.00;0.00;;;15.60;99.90;;;;;;4956396;29;20050;-83
2022/08/11 03:21:07;;;;;;;0.00;0.00;;;15.60;99.90;;;;;;4954082;29;20108;-85
2022/08/11 03:23:46;;;;;;;0.00;0.00;;;15.50;99.90;;;;;;4955598;29;20060;-85
2022/08/11 03:26:23;;;;;;;0.00;0.00;;;15.90;99.90;;;;;;4954103;29;20040;-85
2022/08/11 03:29:03;;;;;;;0.00;0.00;;;15.30;99.90;;;;;;4972191;29;20040;-86
2022/08/11 03:31:35;;;;;;;0.00;0.00;;;15.40;99.90;;;;;;4965476;28;20048;-84
2022/08/11 03:34:07;;;;;;;0.00;0.00;;;15.40;99.90;;;;;;4956618;29;20040;-85
2022/08/11 03:37:05;;;;;;;0.00;0.00;;;15.40;99.90;;;;;;4950085;29;20059;-83
2022/08/11 03:39:54;;;;;;;0.00;0.00;;;15.40;99.90;;;;;;4951841;29;20036;-85
2022/08/11 03:42:31;;;;;;;0.00;0.00;;;15.30;99.90;;;;;;4953177;29;20052;-85
2022/08/11 03:45:14;;;;;;;0.00;0.00;;;15.20;99.90;;;;;;4971637;29;20050;-84
2022/08/11 03:47:55;;;;;;;0.00;0.00;;;15.20;99.90;;;;;;4958123;29;20048;-85
2022/08/11 03:50:42;;;;;;;0.00;0.00;;;15.10;99.90;;;;;;4954496;29;20106;-85
2022/08/11 03:53:16;;;;;;;0.00;0.00;;;15.10;99.90;;;;;;4960550;29;20036;-85
2022/08/11 03:56:20;;;;;;;0.00;0.00;;;15.50;99.90;;;;;;4971933;28;20040;-85
2022/08/11 03:59:34;;;;;;;0.00;0.00;;;15.10;99.90;;;;;;4949916;29;20111;-86
2022/08/11 04:02:38;;;;;;;0.00;0.00;;;15.20;99.90;;;;;;4917474;29;20044;-87
2022/08/11 04:05:37;;;;;;;0.00;0.00;;;15.20;99.90;;;;;;4932720;29;20087;-86
2022/08/11 04:08:21;;;;;;;0.00;0.00;;;15.10;99.90;;;;;;4958995;28;20589;-85
2022/08/11 04:11:14;;;;;;;0.00;0.00;;;15.10;99.90;;;;;;4955292;29;20300;-83
2022/08/11 04:17:49;;;;;;;0.00;0.00;;;15.00;99.90;;;;;;4874367;29;20038;-85
2022/08/11 04:20:43;;;;;;;0.00;0.00;;;15.00;99.90;;;;;;4876798;29;20029;-86
2022/08/11 04:23:24;;;;;;;0.00;0.00;;;14.90;99.90;;;;;;4953879;28;20048;-85
2022/08/11 04:26:46;;;;;;;0.00;0.00;;;14.90;99.90;;;;;;4953433;29;20135;-85
2022/08/11 04:29:28;;;;;;;0.00;0.00;;;14.90;99.90;;;;;;4953553;29;20047;-85
2022/08/11 04:32:31;;;;;;;0.00;0.00;;;14.90;99.90;;;;;;4952894;29;20055;-85
2022/08/11 04:35:21;;;;;;;0.00;0.00;;;14.90;99.90;;;;;;4950452;29;20020;-86
2022/08/11 04:38:11;;;;;;;0.00;0.00;;;14.90;99.90;;;;;;4957375;29;20079;-85
2022/08/11 04:41:19;;;;;;;0.00;0.00;;;14.80;99.90;;;;;;4951055;29;20071;-86
2022/08/11 04:44:18;;;;;;;0.00;0.00;;;14.70;99.90;;;;;;4955921;29;20075;-85
2022/08/11 05:01:39;;;;;;;0.00;0.00;;;14.70;99.90;;;;;;4973454;28;20075;-85
2022/08/11 05:03:21;;;;;;;0.00;0.00;;;15.00;99.90;;;;;;4950327;29;20088;-85
2022/08/11 05:06:35;;;;;;;0.00;0.00;;;15.10;99.90;;;;;;4952182;29;20035;-84
2022/08/11 05:09:20;;;;;;;0.00;0.00;;;15.10;99.90;;;;;;4946405;29;20052;-83
2022/08/11 05:12:09;;;;;;;0.00;0.00;;;15.20;99.90;;;;;;4957380;28;20028;-83
2022/08/11 05:35:06;;;;;;;0.00;0.00;;;15.40;99.90;;;;;;4958200;29;20038;-82
2022/08/11 05:37:40;;;;;;;0.00;0.00;;;15.50;99.90;;;;;;4958983;29;20044;-84
2022/08/11 05:57:20;;;;;;;;;;;16.20;99.90;;;;;;4954593;29;20052;-84
2022/08/11 06:00:09;;;;;;;0.00;0.00;;;17.60;99.90;;;;;;4955807;29;20025;-84
2022/08/11 06:02:41;;;;;;;0.00;0.00;;;16.40;99.90;;;;;;4954970;29;20078;-85
2022/08/11 06:05:09;;;;;;;0.00;0.00;;;16.40;99.90;;;;;;4948310;29;20047;-85
2022/08/11 06:07:37;;;;;;;0.00;0.00;;;16.50;99.90;;;;;;4957166;29;20047;-85
2022/08/11 06:10:25;;;;;;;0.00;0.00;;;16.60;99.90;;;;;;4955272;29;20039;-85
2022/08/11 06:12:56;;;;;;;0.00;0.00;;;16.70;99.90;;;;;;4958271;29;20052;-84
2022/08/11 06:15:25;;;;;;;0.00;0.00;;;16.80;99.90;;;;;;4958530;29;20047;-85
2022/08/11 06:17:53;;;;;;;0.00;0.00;;;17.00;99.90;;;;;;4958358;29;20043;-85
2022/08/11 06:20:24;;;;;;;0.00;0.00;;;17.10;99.90;;;;;;4959131;29;20039;-85
2022/08/11 06:22:57;;;;;;;0.00;0.00;;;17.20;99.90;;;;;;4971972;29;20048;-84
2022/08/11 06:25:30;;;;;;;0.00;0.00;;;17.20;99.90;;;;;;4956795;29;20127;-84
2022/08/11 06:27:59;;;;;;;0.00;0.00;;;17.60;99.90;;;;;;4955020;29;20070;-85
2022/08/11 06:30:38;;;;;;;0.00;0.00;;;17.50;99.90;;;;;;4956211;29;20539;-85
2022/08/11 06:33:08;;;;;;;0.08;0.08;;;17.70;99.90;;;;;;4967935;29;20059;-85
2022/08/11 06:35:44;;;;;;;0.00;0.00;;;17.80;99.90;;;;;;4954500;29;20040;-84
2022/08/11 06:38:20;;;;;;;0.00;0.00;;;17.90;99.90;;;;;;4954879;29;20051;-84
2022/08/11 06:43:48;;;;;;;0.00;0.00;;;18.90;99.90;;;;;;4955260;29;20067;-85
2022/08/11 06:46:27;;;;;;;0.10;0.10;;;18.30;99.90;;;;;;4952560;29;20071;-84
2022/08/11 06:48:55;;;;;;;0.00;0.00;;;18.40;99.90;;;;;;4969525;29;20492;-84
2022/08/11 06:51:22;;;;;;;0.10;0.05;;;18.50;99.90;;;;;;4950162;29;20389;-84
2022/08/11 06:53:51;;;;;;;0.00;0.00;;;18.50;99.90;;;;;;4953122;29;20243;-85
2022/08/11 07:02:32;;;;;;;0.00;0.00;;;18.90;99.90;;;;;;4952039;29;20054;-86
2022/08/11 07:05:02;;;;;;;0.00;0.00;;;19.10;99.90;;;;;;4952437;29;20043;-84
2022/08/11 07:17:33;;;;;;;0.00;0.00;;;19.60;98.80;;;;;;4951764;29;20052;-86
2022/08/11 07:31:23;;;;;;;0.00;0.00;;;20.10;95.50;;;;;;4947765;29;20048;-85
2022/08/11 07:33:56;;;;;;;0.00;0.00;;;20.20;94.50;;;;;;4949456;29;20051;-85
2022/08/11 07:36:39;;;;;;;0.00;0.00;;;20.40;94.10;;;;;;4946980;29;20539;-85
2022/08/11 07:39:11;;;;;;;0.00;0.00;;;20.50;94.10;;;;;;4960637;28;20526;-86
2022/08/11 07:41:38;;;;;;;0.00;0.00;;;20.60;93.40;;;;;;4947867;29;20051;-84
2022/08/11 07:44:08;;;;;;;0.00;0.00;;;20.70;93.20;;;;;;4951497;29;20092;-82
2022/08/11 07:52:29;;;;;;;0.00;0.00;;;21.10;92.20;;;;;;4949453;29;20079;-85
2022/08/11 07:54:58;;;;;;;0.00;0.00;;;21.30;91.90;;;;;;4948753;29;20059;-85
2022/08/11 08:20:43;;;;;;;0.00;0.00;;;22.40;87.60;;;;;;4940523;29;20058;-85
2022/08/11 08:23:12;;;;;;;0.00;0.00;;;23.70;88.40;;;;;;4942614;29;20055;-85
2022/08/11 08:25:40;;;;;;;0.00;0.00;;;23.10;88.10;;;;;;4944315;29;20055;-82
2022/08/11 08:28:10;;;;;;;0.00;0.00;;;22.60;86.60;;;;;;4937500;29;20074;-85
2022/08/11 08:30:46;;;;;;;0.00;0.00;;;22.80;86.70;;;;;;4942772;29;20301;-86
2022/08/11 08:33:16;;;;;;;0.00;0.00;;;22.90;85.50;;;;;;4942275;29;20512;-86
2022/08/11 08:35:44;;;;;;;0.00;0.00;;;23.00;86.40;;;;;;4950287;29;20056;-86
2022/08/11 08:38:23;;;;;;;0.00;0.00;;;23.20;86.20;;;;;;4940812;29;20052;-84
2022/08/11 08:40:52;;;;;;;0.00;0.00;;;23.30;84.90;;;;;;4941841;29;20048;-83
2022/08/11 08:43:23;;;;;;;0.00;0.00;;;23.40;84.10;;;;;;4944261;29;20052;-84
2022/08/11 08:45:54;;;;;;;0.00;0.00;;;23.50;83.90;;;;;;4944563;29;20052;-84
2022/08/11 08:48:24;;;;;;;0.00;0.00;;;23.60;83.20;;;;;;4939362;29;20051;-82
2022/08/11 08:53:45;;;;;;;;;;;23.80;84.70;;;;;;4939531;29;20062;-86
2022/08/11 08:56:26;;;;;;;0.00;0.00;;;24.00;84.10;;;;;;4954599;29;19934;-85
2022/08/11 08:58:55;;;;;;;0.00;0.00;;;24.00;84.40;;;;;;4941210;29;20051;-85
2022/08/11 09:01:24;;;;;;;0.00;0.00;;;24.40;84.30;;;;;;4943085;29;20047;-85
2022/08/11 09:03:51;;;;;;;0.00;0.00;;;24.30;84.70;;;;;;4936674;29;20064;-84
2022/08/11 09:06:38;;;;;;;0.00;0.00;;;24.20;84.40;;;;;;4938121;29;20043;-85
2022/08/11 09:09:08;;;;;;;0.00;0.00;;;24.30;85.00;;;;;;4943678;29;20405;-85
2022/08/11 09:11:53;;;;;;;0.00;0.00;;;24.40;83.80;;;;;;4934328;29;20051;-84
2022/08/11 09:14:22;;;;;;;0.00;0.00;;;24.70;83.00;;;;;;4934128;29;20465;-86
2022/08/11 09:16:50;;;;;;;0.00;0.00;;;24.60;82.90;;;;;;4938086;29;20843;-86
2022/08/11 09:19:20;;;;;;;0.00;0.00;;;24.70;83.70;;;;;;4938679;29;20295;-83
2022/08/11 09:26:58;;;;;;;0.00;0.00;;;24.80;85.30;;;;;;4938062;29;20056;-85
2022/08/11 09:27:26;;;;;;;0.00;0.00;;;24.80;82.00;;;;;;4937847;29;20044;-82
2022/08/11 09:29:53;;;;;;;0.00;0.00;;;25.00;79.90;;;;;;4947706;28;20047;-85
2022/08/11 09:32:21;;;;;;;0.00;0.00;;;25.00;81.00;;;;;;4942316;29;20051;-86
2022/08/11 09:34:50;;;;;;;0.00;0.00;;;25.00;81.80;;;;;;4940252;29;20051;-85
2022/08/11 09:40:29;;;;;;;0.00;0.00;;;25.20;79.60;;;;;;4937348;29;20048;-86
2022/08/11 09:45:50;;;;;;;0.00;0.00;;;26.70;79.60;;;;;;4913813;29;20068;-85
2022/08/11 09:48:18;;;;;;;0.00;0.00;;;25.50;78.40;;;;;;4957442;29;20047;-86
2022/08/11 09:50:48;;;;;;;0.00;0.00;;;25.70;78.60;;;;;;4947729;29;20047;-86
2022/08/11 09:53:16;;;;;;;0.00;0.00;;;25.60;77.20;;;;;;4935773;29;20051;-86
2022/08/11 09:58:54;;;;;;;0.00;0.00;;;25.50;77.20;;;;;;4928172;29;20120;-85
2022/08/11 10:01:27;;;;;;;0.00;0.00;;;25.60;77.90;;;;;;4934935;29;20429;-86
2022/08/11 10:03:59;;;;;;;0.00;0.00;;;25.90;79.40;;;;;;4932200;29;20615;-87
2022/08/11 10:09:21;;;;;;;0.00;0.00;;;25.70;77.60;;;;;;4934452;29;20048;-87
2022/08/11 10:11:56;;;;;;;0.00;0.00;;;25.80;76.40;;;;;;4934429;29;20803;-85
2022/08/11 10:17:13;;;;;;;0.00;0.00;;;25.90;74.60;;;;;;4932522;29;20051;-86
2022/08/11 10:19:42;;;;;;;0.00;0.00;;;26.10;75.00;;;;;;4948017;29;20040;-86
2022/08/11 10:27:53;;;;;;;0.00;0.00;;;26.30;74.00;;;;;;4935935;29;20051;-84
2022/08/11 10:36:26;;;;;;;0.00;0.00;;;26.40;73.10;;;;;;4928879;29;20150;-86
2022/08/11 10:38:53;;;;;;;0.00;0.00;;;26.40;73.80;;;;;;4949002;29;20058;-85
2022/08/11 10:44:28;;;;;;;0.00;0.00;;;26.60;74.90;;;;;;4921687;29;20043;-86
2022/08/11 10:49:41;;;;;;;0.00;0.00;;;26.70;71.20;;;;;;4929477;29;20048;-85
2022/08/11 11:00:33;;;;;;;0.00;0.00;;;27.70;70.70;;;;;;4936098;29;20130;-85
2022/08/11 11:03:01;;;;;;;0.00;0.00;;;26.90;71.90;;;;;;4933987;29;20520;-85
2022/08/11 11:05:50;;;;;;;0.00;0.00;;;26.80;70.20;;;;;;4945423;29;20055;-84
2022/08/11 11:08:52;;;;;;;0.00;0.00;;;26.80;71.80;;;;;;4937863;29;20849;-87
2022/08/11 11:20:13;;;;;;;0.00;0.00;;;27.00;72.20;;;;;;4934361;29;20500;-86
2022/08/11 11:23:08;;;;;;;0.00;0.00;;;27.10;72.70;;;;;;4929015;29;20064;-86
2022/08/11 11:26:09;;;;;;;0.00;0.00;;;27.40;72.30;;;;;;4933268;29;20468;-86
2022/08/11 11:28:57;;;;;;;0.00;0.00;;;27.40;71.20;;;;;;4926002;29;20055;-86
2022/08/11 11:31:35;;;;;;;0.00;0.00;;;27.40;68.70;;;;;;4931813;29;20042;-87
2022/08/11 11:34:22;;;;;;;0.00;0.00;;;27.30;70.50;;;;;;4932753;29;20055;-85
2022/08/11 11:36:52;;;;;;;0.00;0.00;;;28.00;70.40;;;;;;4933135;29;20051;-85
2022/08/11 11:39:21;;;;;;;0.00;0.00;;;27.50;70.60;;;;;;4943836;29;20051;-87
2022/08/11 11:41:50;;;;;;;0.00;0.00;;;27.60;70.40;;;;;;4926474;29;20126;-81
2022/08/11 11:44:18;;;;;;;0.00;0.00;;;27.60;69.10;;;;;;4932767;29;20055;-85
2022/08/11 11:46:46;;;;;;;0.00;0.00;;;27.50;70.80;;;;;;4935070;29;20059;-87
2022/08/11 11:49:17;;;;;;;0.00;0.00;;;29.40;69.80;;;;;;4932502;29;20058;-87
2022/08/11 11:51:46;;;;;;;0.00;0.00;;;27.80;68.60;;;;;;4951808;28;20692;-87
2022/08/11 11:54:17;;;;;;;0.00;0.00;;;27.80;67.90;;;;;;4934573;29;20119;-86
2022/08/11 11:56:45;;;;;;;0.00;0.00;;;27.80;67.00;;;;;;4932818;29;20055;-86
2022/08/11 12:01:59;;;;;;;0.00;0.00;;;27.80;67.30;;;;;;4933140;29;20457;-85
2022/08/11 12:04:40;;;;;;;0.00;0.00;;;27.70;68.50;;;;;;4929715;29;20062;-86
2022/08/11 12:09:55;;;;;;;0.00;0.00;;;28.00;67.20;;;;;;4930883;29;20278;-87
2022/08/11 12:15:10;;;;;;;0.00;0.00;;;28.00;68.40;;;;;;4934343;29;20102;-86
2022/08/11 12:17:37;;;;;;;0.00;0.00;;;28.10;68.00;;;;;;4933361;29;20111;-88
2022/08/11 12:20:08;;;;;;;0.00;0.00;;;28.10;67.00;;;;;;4930122;29;20430;-87
2022/08/11 12:28:49;;;;;;;0.00;0.00;;;28.00;69.10;;;;;;4931203;29;20046;-85
2022/08/11 12:31:16;;;;;;;0.00;0.00;;;28.00;68.30;;;;;;4936960;29;20099;-86
2022/08/11 12:33:44;;;;;;;0.00;0.00;;;28.00;67.30;;;;;;4922897;29;20051;-86
2022/08/11 12:36:15;;;;;;;0.00;0.00;;;30.00;69.40;;;;;;4939913;29;20691;-84
2022/08/11 12:38:45;;;;;;;0.00;0.00;;;29.10;67.20;;;;;;4931939;29;20103;-87
2022/08/11 12:46:58;;;;;;;0.00;0.00;;;28.10;68.50;;;;;;4932671;29;20047;-85
2022/08/11 12:52:32;;;;;;;0.00;0.00;;;28.40;65.00;;;;;;4898490;29;20496;-87
2022/08/11 12:55:04;;;;;;;0.00;0.00;;;28.40;66.20;;;;;;4936623;29;20119;-86
2022/08/11 13:06:04;;;;;;;0.00;0.00;;;28.80;65.00;;;;;;4933994;29;20074;-87
2022/08/11 13:08:35;;;;;;;0.00;0.00;;;28.80;62.80;;;;;;4952106;28;20055;-87
2022/08/11 13:13:51;;;;;;;0.00;0.00;;;30.30;63.70;;;;;;4931797;29;20044;-87
2022/08/11 13:16:26;;;;;;;0.00;0.00;;;29.10;64.10;;;;;;4931879;29;20070;-87
2022/08/11 13:18:55;;;;;;;0.00;0.00;;;29.00;63.00;;;;;;4934461;29;20051;-83
2022/08/11 13:21:22;;;;;;;0.00;0.00;;;29.00;63.50;;;;;;4949339;29;20106;-86
2022/08/11 13:23:53;;;;;;;0.00;0.00;;;29.00;62.70;;;;;;4948909;29;20048;-85
2022/08/11 13:26:30;;;;;;;0.00;0.00;;;29.00;60.80;;;;;;4930299;29;20043;-85
2022/08/11 13:29:18;;;;;;;0.00;0.00;;;29.10;60.30;;;;;;4927928;29;20508;-86
2022/08/11 13:31:44;;;;;;;;;;;29.20;59.30;;;;;;4923344;29;20052;-85
2022/08/11 13:34:13;;;;;;;0.00;0.00;;;29.30;62.50;;;;;;4931761;29;20410;-85
2022/08/11 13:36:40;;;;;;;0.00;0.00;;;29.30;61.20;;;;;;4930911;29;20055;-83
2022/08/11 13:39:09;;;;;;;0.00;0.00;;;29.30;59.20;;;;;;4930361;29;20055;-87
2022/08/11 13:41:39;;;;;;;0.00;0.00;;;29.30;59.70;;;;;;4946380;28;20107;-84
2022/08/11 13:44:09;;;;;;;0.00;0.00;;;29.50;58.20;;;;;;4929609;29;20059;-86
2022/08/11 13:46:37;;;;;;;0.00;0.00;;;29.50;58.60;;;;;;4925395;29;20091;-86
2022/08/11 13:49:07;;;;;;;0.00;0.00;;;29.60;59.20;;;;;;4934387;29;20043;-86
2022/08/11 13:51:36;;;;;;;0.00;0.00;;;29.80;59.10;;;;;;4932117;29;20059;-85
2022/08/11 13:54:05;;;;;;;0.00;0.00;;;30.00;60.00;;;;;;4928195;29;20043;-87
2022/08/11 13:56:38;;;;;;;0.00;0.00;;;30.30;59.10;;;;;;4932342;29;20043;-87
2022/08/11 13:59:09;;;;;;;0.00;0.00;;;30.60;61.00;;;;;;4932737;29;20048;-88
2022/08/11 14:01:38;;;;;;;0.00;0.00;;;30.70;60.80;;;;;;4934031;29;20052;-87
2022/08/11 14:04:30;;;;;;;0.00;0.00;;;30.60;57.30;;;;;;4931625;29;20063;-87
2022/08/11 14:07:02;;;;;;;0.00;0.00;;;30.50;58.70;;;;;;4934266;29;20067;-85
2022/08/11 14:09:34;;;;;;;0.00;0.00;;;30.80;57.80;;;;;;4932810;29;20047;-86
2022/08/11 14:14:59;;;;;;;0.00;0.00;;;31.00;57.40;;;;;;4928350;29;20144;-87
2022/08/11 14:17:34;;;;;;;0.00;0.00;;;31.10;56.60;;;;;;4930396;29;20079;-85
2022/08/11 14:20:17;;;;;;;0.00;0.00;;;31.60;56.70;;;;;;4932395;29;20051;-87
2022/08/11 14:23:04;;;;;;;0.00;0.00;;;;;;;;;;4943713;29;20062;-87
2022/08/11 14:25:32;;;;;;;0.00;0.00;;;31.80;55.50;;;;;;4922089;29;20110;-86
2022/08/11 14:28:20;;;;;;;0.00;0.00;;;31.90;56.40;;;;;;4930623;29;20138;-86
2022/08/11 14:31:05;;;;;;;0.00;0.00;;;32.20;56.80;;;;;;4949359;29;20501;-86
2022/08/11 14:33:33;;;;;;;0.00;0.00;;;32.30;54.30;;;;;;4937029;29;20059;-87
2022/08/11 14:36:21;;;;;;;0.00;0.00;;;32.30;54.80;;;;;;4942740;29;20523;-86
2022/08/11 14:38:49;;;;;;;0.00;0.00;;;32.50;56.10;;;;;;4935344;29;20052;-87
2022/08/11 14:47:13;;;;;;;0.00;0.00;;;31.30;55.70;;;;;;4933716;29;20051;-84
2022/08/11 14:49:53;;;;;;;0.00;0.00;;;31.60;55.30;;;;;;4929018;29;20066;-86
2022/08/11 14:52:37;;;;;;;0.00;0.00;;;30.40;54.60;;;;;;4928683;29;20039;-87
2022/08/11 14:57:53;;;;;;;0.00;0.00;;;30.30;55.90;;;;;;4949612;28;20527;-87
2022/08/11 15:00:33;;;;;;;0.00;0.00;;;30.20;56.60;;;;;;4948619;28;20040;-87
2022/08/11 15:03:10;;;;;;;0.00;0.00;;;30.10;56.60;;;;;;4930133;29;20071;-87
2022/08/11 15:05:43;;;;;;;0.00;0.00;;;31.80;58.40;;;;;;4935581;29;20083;-86
2022/08/11 15:14:00;;;;;;;0.00;0.00;;;30.00;56.90;;;;;;4935748;29;20059;-86
2022/08/11 15:19:15;;;;;;;0.00;0.00;;;30.00;56.40;;;;;;4934704;29;20335;-85
2022/08/11 15:24:35;;;;;;;0.00;0.00;;;29.80;56.70;;;;;;4932000;29;20039;-85
2022/08/11 15:38:38;;;;;;;0.00;0.00;;;29.40;56.60;;;;;;4930289;29;20473;-86
2022/08/11 15:46:43;;;;;;;0.00;0.00;;;29.50;56.50;;;;;;4934601;29;20106;-86
2022/08/11 15:49:14;;;;;;;0.00;0.00;;;29.60;56.70;;;;;;4936344;29;20060;-86
2022/08/11 15:51:54;;;;;;;0.00;0.00;;;29.60;57.30;;;;;;4932485;29;20062;-86
2022/08/11 15:54:27;;;;;;;0.00;0.00;;;29.50;56.80;;;;;;4928636;29;20099;-86
2022/08/11 15:56:56;;;;;;;0.00;0.00;;;30.10;56.70;;;;;;4936466;29;20111;-86
2022/08/11 16:04:46;;;;;;;0.00;0.00;;;29.60;55.60;;;;;;4931791;29;20043;-87
2022/08/11 16:07:15;;;;;;;0.00;0.00;;;29.50;56.90;;;;;;4931856;29;20052;-86
2022/08/11 16:09:44;;;;;;;;;;;29.30;57.00;;;;;;4931184;29;20052;-87
2022/08/11 16:12:21;;;;;;;0.00;0.00;;;29.30;56.60;;;;;;4946367;29;20023;-87
2022/08/11 16:17:43;;;;;;;0.00;0.00;;;29.10;57.20;;;;;;4935729;29;20058;-87
2022/08/11 16:20:13;;;;;;;0.00;0.00;;;29.30;56.90;;;;;;4935794;29;20055;-85
2022/08/11 16:22:42;;;;;;;0.00;0.00;;;29.20;56.70;;;;;;4934377;29;20091;-86
2022/08/11 16:25:31;;;;;;;0.00;0.00;;;29.10;56.70;;;;;;4932303;29;20052;-86
2022/08/11 16:28:20;;;;;;;0.00;0.00;;;29.10;57.10;;;;;;4936802;28;20059;-86
2022/08/11 16:30:48;;;;;;;0.00;0.00;;;29.10;55.70;;;;;;4931448;29;20083;-87
2022/08/11 16:33:17;;;;;;;0.00;0.00;;;29.10;56.10;;;;;;4935163;29;20063;-87
2022/08/11 16:38:53;;;;;;;0.00;0.00;;;29.00;56.90;;;;;;4933599;29;20693;-86
2022/08/11 16:47:05;;;;;;;0.00;0.00;;;29.10;57.10;;;;;;4929755;29;20047;-86
2022/08/11 16:49:35;;;;;;;0.00;0.00;;;29.00;56.30;;;;;;4952760;28;20051;-87
2022/08/11 16:52:06;;;;;;;0.00;0.00;;;29.00;56.80;;;;;;4928842;29;20031;-87
2022/08/11 16:54:34;;;;;;;0.00;0.00;;;29.00;56.50;;;;;;4931454;29;20420;-83
2022/08/11 16:59:57;;;;;;;0.00;0.00;;;28.90;56.10;;;;;;4931723;29;20055;-86
2022/08/11 17:14:15;;;;;;;0.00;0.00;;;28.80;57.40;;;;;;4929710;29;20480;-86
2022/08/11 17:16:44;;;;;;;0.00;0.00;;;29.90;59.10;;;;;;4929651;29;20055;-87
2022/08/11 17:19:12;;;;;;;;;;;29.50;57.00;;;;;;4944201;29;20420;-86
2022/08/11 17:24:32;;;;;;;0.00;0.00;;;29.10;56.00;;;;;;4930946;29;20103;-87
2022/08/11 17:27:00;;;;;;;0.00;0.00;;;29.80;57.10;;;;;;4928247;29;20468;-85
2022/08/11 17:29:32;;;;;;;0.00;0.00;;;28.60;56.50;;;;;;4927149;29;20048;-87
2022/08/11 17:37:35;;;;;;;0.00;0.00;;;28.70;56.80;;;;;;4933943;29;20497;-84
2022/08/11 17:40:07;;;;;;;0.00;0.00;;;28.60;56.80;;;;;;4929766;29;20043;-87
2022/08/11 17:48:26;;;;;;;0.00;0.00;;;28.40;57.10;;;;;;4933294;29;20115;-87
2022/08/11 17:50:57;;;;;;;0.00;0.00;;;28.30;56.60;;;;;;4927066;29;20512;-87
2022/08/11 18:05:06;;;;;;;0.00;0.00;;;27.90;57.40;;;;;;4926586;29;20060;-85
